sensor_id;sensor_type;location;lat;lon;timestamp;pressure;altitude;pressure_sealevel;temperature;humidity
28456;BME280;15682;56.742;38.866;2023-10-31T00:01:12;98540.0;;;5.8;100.0
28456;BME280;15682;56.742;38.866;2023-10-31T00:03:12;98540.0;;;5.7;100.0
28456;BME280;15682;56.742;38.866;2023-10-31T00:05:12;98550.0;;;5.6;100.0
28456;BME280;15682;56.742;38.866;2023-10-31T00:07:12;98550.0;;;5.6;100.0
28456;BME280;15682;56.742;38.866;2023-10-31T00:09:12;98550.0;;;5.6;100.0
28456;BME280;15682;56.742;38.866;2023-10-31T00:11:12;98550.0;;;5.6;100.0
28456;BME280;15682;56.742;38.866;2023-10-31T00:13:12;98570.0;;;5.6;100.0
28456;BME280;15682;56.742;38.866;2023-10-31T00:15:12;98570.0;;;5.6;100.0
28456;BME280;15682;56.742;38.866;2023-10-31T00:17:12;98580.0;;;5.6;100.0
28456;BME280;15682;56.742;38.866;2023-10-31T00:19:12;98580.0;;;5.6;100.0
28456;BME280;15682;56.742;38.866;2023-10-31T00:21:12;98580.0;;;5.6;100.0
28456;BME280;15682;56.742;38.866;2023-10-31T00:23:13;98600.0;;;5.6;100.0
28456;BME280;15682;56.742;38.866;2023-10-31T00:25:12;98600.0;;;5.6;100.0
28456;BME280;15682;56.742;38.866;2023-10-31T00:27:13;98600.0;;;5.6;100.0
28456;BME280;15682;56.742;38.866;2023-10-31T00:29:13;98600.0;;;5.6;100.0
28456;BME280;15682;56.742;38.866;2023-10-31T00:31:13;98600.0;;;5.6;100.0
28456;BME280;15682;56.742;38.866;2023-10-31T00:33:13;98600.0;;;5.6;100.0
28456;BME280;15682;56.742;38.866;2023-10-31T00:35:13;98620.0;;;5.6;100.0
28456;BME280;15682;56.742;38.866;2023-10-31T00:37:13;98620.0;;;5.6;100.0
28456;BME280;15682;56.742;38.866;2023-10-31T00:39:13;98620.0;;;5.6;100.0
28456;BME280;15682;56.742;38.866;2023-10-31T00:41:13;98620.0;;;5.6;100.0
28456;BME280;15682;56.742;38.866;2023-10-31T00:43:13;98630.0;;;5.5;100.0
28456;BME280;15682;56.742;38.866;2023-10-31T00:45:13;98630.0;;;5.5;100.0
28456;BME280;15682;56.742;38.866;2023-10-31T00:47:13;98630.0;;;5.5;100.0
28456;BME280;15682;56.742;38.866;2023-10-31T00:49:13;98630.0;;;5.5;100.0
28456;BME280;15682;56.742;38.866;2023-10-31T00:51:13;98630.0;;;5.5;100.0
28456;BME280;15682;56.742;38.866;2023-10-31T00:53:13;98630.0;;;5.5;100.0
28456;BME280;15682;56.742;38.866;2023-10-31T00:55:13;98650.0;;;5.5;100.0
28456;BME280;15682;56.742;38.866;2023-10-31T00:57:13;98650.0;;;5.5;100.0
28456;BME280;15682;56.742;38.866;2023-10-31T00:59:13;98650.0;;;5.3;100.0
28456;BME280;15682;56.742;38.866;2023-10-31T01:01:14;98650.0;;;5.3;100.0
28456;BME280;15682;56.742;38.866;2023-10-31T01:03:13;98650.0;;;5.4;100.0
28456;BME280;15682;56.742;38.866;2023-10-31T01:05:13;98650.0;;;5.4;100.0
28456;BME280;15682;56.742;38.866;2023-10-31T01:07:13;98680.0;;;5.4;100.0
28456;BME280;15682;56.742;38.866;2023-10-31T01:09:13;98680.0;;;5.4;100.0
28456;BME280;15682;56.742;38.866;2023-10-31T01:11:13;98680.0;;;5.4;100.0
28456;BME280;15682;56.742;38.866;2023-10-31T01:13:13;98680.0;;;5.3;100.0
28456;BME280;15682;56.742;38.866;2023-10-31T01:15:14;98680.0;;;5.3;100.0
28456;BME280;15682;56.742;38.866;2023-10-31T01:17:14;98680.0;;;5.3;100.0
28456;BME280;15682;56.742;38.866;2023-10-31T01:19:14;98680.0;;;5.3;100.0
28456;BME280;15682;56.742;38.866;2023-10-31T01:21:14;98700.0;;;5.3;100.0
28456;BME280;15682;56.742;38.866;2023-10-31T01:23:14;98700.0;;;5.3;100.0
28456;BME280;15682;56.742;38.866;2023-10-31T01:25:14;98700.0;;;5.2;100.0
28456;BME280;15682;56.742;38.866;2023-10-31T01:27:14;98700.0;;;5.2;100.0
28456;BME280;15682;56.742;38.866;2023-10-31T01:29:14;98700.0;;;5.2;100.0
28456;BME280;15682;56.742;38.866;2023-10-31T01:31:14;98700.0;;;5.2;100.0
28456;BME280;15682;56.742;38.866;2023-10-31T01:33:14;98700.0;;;5.3;100.0
28456;BME280;15682;56.742;38.866;2023-10-31T01:35:14;98700.0;;;5.3;100.0
28456;BME280;15682;56.742;38.866;2023-10-31T01:37:14;98720.0;;;5.3;100.0
28456;BME280;15682;56.742;38.866;2023-10-31T01:39:14;98720.0;;;5.3;100.0
28456;BME280;15682;56.742;38.866;2023-10-31T01:41:14;98720.0;;;5.3;100.0
28456;BME280;15682;56.742;38.866;2023-10-31T01:43:29;98720.0;;;5.3;100.0
28456;BME280;15682;56.742;38.866;2023-10-31T01:45:14;98720.0;;;5.3;100.0
28456;BME280;15682;56.742;38.866;2023-10-31T01:47:14;98730.0;;;5.2;100.0
28456;BME280;15682;56.742;38.866;2023-10-31T01:49:14;98730.0;;;5.3;100.0
28456;BME280;15682;56.742;38.866;2023-10-31T01:51:15;98730.0;;;5.3;100.0
28456;BME280;15682;56.742;38.866;2023-10-31T01:53:14;98730.0;;;5.3;100.0
28456;BME280;15682;56.742;38.866;2023-10-31T01:55:14;98730.0;;;5.3;100.0
28456;BME280;15682;56.742;38.866;2023-10-31T01:57:14;98740.0;;;5.3;100.0
28456;BME280;15682;56.742;38.866;2023-10-31T01:59:14;98740.0;;;5.3;100.0
28456;BME280;15682;56.742;38.866;2023-10-31T02:01:15;98750.0;;;5.3;100.0
28456;BME280;15682;56.742;38.866;2023-10-31T02:03:15;98760.0;;;5.3;100.0
28456;BME280;15682;56.742;38.866;2023-10-31T02:05:15;98760.0;;;5.3;100.0
28456;BME280;15682;56.742;38.866;2023-10-31T02:07:15;98770.0;;;5.3;100.0
28456;BME280;15682;56.742;38.866;2023-10-31T02:09:15;98780.0;;;5.3;100.0
28456;BME280;15682;56.742;38.866;2023-10-31T02:11:15;98780.0;;;5.3;100.0
28456;BME280;15682;56.742;38.866;2023-10-31T02:13:17;98780.0;;;5.3;100.0
28456;BME280;15682;56.742;38.866;2023-10-31T02:15:15;98800.0;;;5.3;100.0
28456;BME280;15682;56.742;38.866;2023-10-31T02:17:15;98800.0;;;5.3;100.0
28456;BME280;15682;56.742;38.866;2023-10-31T02:19:18;98810.0;;;5.2;100.0
28456;BME280;15682;56.742;38.866;2023-10-31T02:21:16;98810.0;;;5.2;100.0
28456;BME280;15682;56.742;38.866;2023-10-31T02:23:15;98810.0;;;5.2;100.0
28456;BME280;15682;56.742;38.866;2023-10-31T02:25:16;98820.0;;;5.2;100.0
28456;BME280;15682;56.742;38.866;2023-10-31T02:27:15;98820.0;;;5.2;100.0
28456;BME280;15682;56.742;38.866;2023-10-31T02:29:15;98830.0;;;5.2;100.0
28456;BME280;15682;56.742;38.866;2023-10-31T02:31:15;98840.0;;;5.2;100.0
28456;BME280;15682;56.742;38.866;2023-10-31T02:33:15;98840.0;;;5.1;100.0
28456;BME280;15682;56.742;38.866;2023-10-31T02:35:16;98840.0;;;5.1;100.0
28456;BME280;15682;56.742;38.866;2023-10-31T02:37:15;98850.0;;;5.1;100.0
28456;BME280;15682;56.742;38.866;2023-10-31T02:39:15;98850.0;;;5.0;100.0
28456;BME280;15682;56.742;38.866;2023-10-31T02:41:15;98850.0;;;5.0;100.0
28456;BME280;15682;56.742;38.866;2023-10-31T02:43:15;98850.0;;;5.1;100.0
28456;BME280;15682;56.742;38.866;2023-10-31T02:45:15;98850.0;;;5.1;100.0
28456;BME280;15682;56.742;38.866;2023-10-31T02:47:15;98850.0;;;4.9;100.0
28456;BME280;15682;56.742;38.866;2023-10-31T02:49:15;98850.0;;;4.9;100.0
28456;BME280;15682;56.742;38.866;2023-10-31T02:51:15;98860.0;;;4.9;100.0
28456;BME280;15682;56.742;38.866;2023-10-31T02:53:17;98860.0;;;5.0;100.0
28456;BME280;15682;56.742;38.866;2023-10-31T02:55:16;98860.0;;;5.0;100.0
28456;BME280;15682;56.742;38.866;2023-10-31T02:57:17;98870.0;;;5.0;100.0
28456;BME280;15682;56.742;38.866;2023-10-31T02:59:16;98880.0;;;5.0;100.0
28456;BME280;15682;56.742;38.866;2023-10-31T03:01:16;98880.0;;;5.0;100.0
28456;BME280;15682;56.742;38.866;2023-10-31T03:03:16;98880.0;;;5.0;100.0
28456;BME280;15682;56.742;38.866;2023-10-31T03:05:16;98880.0;;;5.0;100.0
28456;BME280;15682;56.742;38.866;2023-10-31T03:07:16;98880.0;;;5.0;100.0
28456;BME280;15682;56.742;38.866;2023-10-31T03:09:16;98880.0;;;5.0;100.0
28456;BME280;15682;56.742;38.866;2023-10-31T03:11:24;98880.0;;;5.0;100.0
28456;BME280;15682;56.742;38.866;2023-10-31T03:13:16;98880.0;;;4.8;100.0
28456;BME280;15682;56.742;38.866;2023-10-31T03:15:16;98880.0;;;4.8;100.0
28456;BME280;15682;56.742;38.866;2023-10-31T03:17:16;98890.0;;;4.8;100.0
28456;BME280;15682;56.742;38.866;2023-10-31T03:19:16;98900.0;;;4.8;100.0
28456;BME280;15682;56.742;38.866;2023-10-31T03:21:16;98900.0;;;4.7;100.0
28456;BME280;15682;56.742;38.866;2023-10-31T03:23:16;98900.0;;;4.8;100.0
28456;BME280;15682;56.742;38.866;2023-10-31T03:25:16;98900.0;;;4.9;100.0
28456;BME280;15682;56.742;38.866;2023-10-31T03:27:16;98900.0;;;4.9;100.0
28456;BME280;15682;56.742;38.866;2023-10-31T03:29:16;98900.0;;;4.9;100.0
28456;BME280;15682;56.742;38.866;2023-10-31T03:31:16;98920.0;;;4.9;100.0
28456;BME280;15682;56.742;38.866;2023-10-31T03:33:17;98920.0;;;4.7;100.0
28456;BME280;15682;56.742;38.866;2023-10-31T03:35:16;98920.0;;;4.7;100.0
28456;BME280;15682;56.742;38.866;2023-10-31T03:37:16;98920.0;;;4.7;100.0
28456;BME280;15682;56.742;38.866;2023-10-31T03:39:16;98920.0;;;4.7;100.0
28456;BME280;15682;56.742;38.866;2023-10-31T03:41:16;98920.0;;;4.7;100.0
28456;BME280;15682;56.742;38.866;2023-10-31T03:43:17;98920.0;;;4.7;100.0
28456;BME280;15682;56.742;38.866;2023-10-31T03:45:17;98920.0;;;4.7;100.0
28456;BME280;15682;56.742;38.866;2023-10-31T03:47:17;98920.0;;;4.7;100.0
28456;BME280;15682;56.742;38.866;2023-10-31T03:49:17;98930.0;;;4.7;100.0
28456;BME280;15682;56.742;38.866;2023-10-31T03:51:17;98930.0;;;4.7;100.0
28456;BME280;15682;56.742;38.866;2023-10-31T03:53:17;98930.0;;;4.7;100.0
28456;BME280;15682;56.742;38.866;2023-10-31T03:55:17;98930.0;;;4.7;100.0
28456;BME280;15682;56.742;38.866;2023-10-31T03:57:17;98930.0;;;4.7;100.0
28456;BME280;15682;56.742;38.866;2023-10-31T03:59:17;98930.0;;;4.7;100.0
28456;BME280;15682;56.742;38.866;2023-10-31T04:01:17;98940.0;;;4.7;100.0
28456;BME280;15682;56.742;38.866;2023-10-31T04:03:17;98950.0;;;4.7;100.0
28456;BME280;15682;56.742;38.866;2023-10-31T04:05:17;98950.0;;;4.7;100.0
28456;BME280;15682;56.742;38.866;2023-10-31T04:07:17;98950.0;;;4.7;100.0
28456;BME280;15682;56.742;38.866;2023-10-31T04:09:17;98950.0;;;4.7;100.0
28456;BME280;15682;56.742;38.866;2023-10-31T04:11:17;98950.0;;;4.7;100.0
28456;BME280;15682;56.742;38.866;2023-10-31T04:13:17;98950.0;;;4.7;100.0
28456;BME280;15682;56.742;38.866;2023-10-31T04:15:17;98960.0;;;4.7;100.0
28456;BME280;15682;56.742;38.866;2023-10-31T04:17:17;98960.0;;;4.7;100.0
28456;BME280;15682;56.742;38.866;2023-10-31T04:19:17;98960.0;;;4.7;100.0
28456;BME280;15682;56.742;38.866;2023-10-31T04:21:17;98970.0;;;4.7;100.0
28456;BME280;15682;56.742;38.866;2023-10-31T04:23:17;98980.0;;;4.8;100.0
28456;BME280;15682;56.742;38.866;2023-10-31T04:25:17;98980.0;;;4.8;100.0
28456;BME280;15682;56.742;38.866;2023-10-31T04:27:17;98980.0;;;4.8;100.0
28456;BME280;15682;56.742;38.866;2023-10-31T04:29:17;99000.0;;;4.8;100.0
28456;BME280;15682;56.742;38.866;2023-10-31T04:31:17;99000.0;;;4.8;100.0
28456;BME280;15682;56.742;38.866;2023-10-31T04:33:17;99000.0;;;4.7;100.0
28456;BME280;15682;56.742;38.866;2023-10-31T04:35:17;99000.0;;;4.7;100.0
28456;BME280;15682;56.742;38.866;2023-10-31T04:37:17;99000.0;;;4.7;100.0
28456;BME280;15682;56.742;38.866;2023-10-31T04:39:17;99010.0;;;4.7;100.0
28456;BME280;15682;56.742;38.866;2023-10-31T04:41:17;99010.0;;;4.7;100.0
28456;BME280;15682;56.742;38.866;2023-10-31T04:43:17;99010.0;;;4.8;100.0
28456;BME280;15682;56.742;38.866;2023-10-31T04:45:18;99010.0;;;4.8;100.0
28456;BME280;15682;56.742;38.866;2023-10-31T04:47:18;99010.0;;;4.8;100.0
28456;BME280;15682;56.742;38.866;2023-10-31T04:49:18;99010.0;;;4.8;100.0
28456;BME280;15682;56.742;38.866;2023-10-31T04:51:18;99010.0;;;4.8;100.0
28456;BME280;15682;56.742;38.866;2023-10-31T04:53:18;99020.0;;;4.7;100.0
28456;BME280;15682;56.742;38.866;2023-10-31T04:55:18;99030.0;;;4.7;100.0
28456;BME280;15682;56.742;38.866;2023-10-31T04:57:18;99030.0;;;4.7;100.0
28456;BME280;15682;56.742;38.866;2023-10-31T04:59:18;99030.0;;;4.7;100.0
28456;BME280;15682;56.742;38.866;2023-10-31T05:01:18;99030.0;;;4.7;100.0
28456;BME280;15682;56.742;38.866;2023-10-31T05:03:18;99030.0;;;4.7;100.0
28456;BME280;15682;56.742;38.866;2023-10-31T05:05:18;99040.0;;;4.7;100.0
28456;BME280;15682;56.742;38.866;2023-10-31T05:07:18;99050.0;;;4.7;100.0
28456;BME280;15682;56.742;38.866;2023-10-31T05:09:18;99050.0;;;4.7;100.0
28456;BME280;15682;56.742;38.866;2023-10-31T05:11:18;99050.0;;;4.7;100.0
28456;BME280;15682;56.742;38.866;2023-10-31T05:13:18;99050.0;;;4.6;100.0
28456;BME280;15682;56.742;38.866;2023-10-31T05:15:18;99050.0;;;4.6;100.0
28456;BME280;15682;56.742;38.866;2023-10-31T05:17:18;99050.0;;;4.6;100.0
28456;BME280;15682;56.742;38.866;2023-10-31T05:19:18;99050.0;;;4.6;100.0
28456;BME280;15682;56.742;38.866;2023-10-31T05:21:19;99050.0;;;4.6;100.0
28456;BME280;15682;56.742;38.866;2023-10-31T05:23:18;99060.0;;;4.7;100.0
28456;BME280;15682;56.742;38.866;2023-10-31T05:25:18;99070.0;;;4.7;100.0
28456;BME280;15682;56.742;38.866;2023-10-31T05:27:18;99070.0;;;4.7;100.0
28456;BME280;15682;56.742;38.866;2023-10-31T05:29:18;99080.0;;;4.7;100.0
28456;BME280;15682;56.742;38.866;2023-10-31T05:31:18;99080.0;;;4.7;100.0
28456;BME280;15682;56.742;38.866;2023-10-31T05:33:18;99080.0;;;4.7;100.0
28456;BME280;15682;56.742;38.866;2023-10-31T05:35:19;99080.0;;;4.7;100.0
28456;BME280;15682;56.742;38.866;2023-10-31T05:37:18;99100.0;;;4.7;100.0
28456;BME280;15682;56.742;38.866;2023-10-31T05:39:18;99100.0;;;4.7;100.0
28456;BME280;15682;56.742;38.866;2023-10-31T05:41:18;99100.0;;;4.7;100.0
28456;BME280;15682;56.742;38.866;2023-10-31T05:43:18;99100.0;;;4.7;100.0
28456;BME280;15682;56.742;38.866;2023-10-31T05:45:18;99100.0;;;4.7;100.0
28456;BME280;15682;56.742;38.866;2023-10-31T05:47:18;99100.0;;;4.7;100.0
28456;BME280;15682;56.742;38.866;2023-10-31T05:49:18;99120.0;;;4.7;100.0
28456;BME280;15682;56.742;38.866;2023-10-31T05:51:19;99120.0;;;4.7;100.0
28456;BME280;15682;56.742;38.866;2023-10-31T05:53:19;99120.0;;;4.8;100.0
28456;BME280;15682;56.742;38.866;2023-10-31T05:55:19;99120.0;;;4.8;100.0
28456;BME280;15682;56.742;38.866;2023-10-31T05:57:19;99120.0;;;4.8;100.0
28456;BME280;15682;56.742;38.866;2023-10-31T05:59:19;99120.0;;;4.8;100.0
28456;BME280;15682;56.742;38.866;2023-10-31T06:01:19;99120.0;;;4.8;100.0
28456;BME280;15682;56.742;38.866;2023-10-31T06:03:19;99120.0;;;4.9;100.0
28456;BME280;15682;56.742;38.866;2023-10-31T06:05:19;99120.0;;;4.9;100.0
28456;BME280;15682;56.742;38.866;2023-10-31T06:07:19;99120.0;;;4.8;100.0
28456;BME280;15682;56.742;38.866;2023-10-31T06:09:19;99130.0;;;4.8;100.0
28456;BME280;15682;56.742;38.866;2023-10-31T06:11:19;99130.0;;;4.9;100.0
28456;BME280;15682;56.742;38.866;2023-10-31T06:13:19;99140.0;;;4.9;100.0
28456;BME280;15682;56.742;38.866;2023-10-31T06:15:19;99150.0;;;4.9;100.0
28456;BME280;15682;56.742;38.866;2023-10-31T06:17:19;99150.0;;;4.9;100.0
28456;BME280;15682;56.742;38.866;2023-10-31T06:19:19;99150.0;;;4.9;100.0
28456;BME280;15682;56.742;38.866;2023-10-31T06:21:19;99150.0;;;4.9;100.0
28456;BME280;15682;56.742;38.866;2023-10-31T06:23:19;99150.0;;;4.8;100.0
28456;BME280;15682;56.742;38.866;2023-10-31T06:25:19;99150.0;;;4.8;100.0
28456;BME280;15682;56.742;38.866;2023-10-31T06:27:19;99150.0;;;4.8;100.0
28456;BME280;15682;56.742;38.866;2023-10-31T06:29:19;99150.0;;;4.8;100.0
28456;BME280;15682;56.742;38.866;2023-10-31T06:31:19;99150.0;;;4.8;100.0
28456;BME280;15682;56.742;38.866;2023-10-31T06:33:19;99150.0;;;4.8;100.0
28456;BME280;15682;56.742;38.866;2023-10-31T06:35:19;99150.0;;;4.8;100.0
28456;BME280;15682;56.742;38.866;2023-10-31T06:37:20;99170.0;;;4.9;100.0
28456;BME280;15682;56.742;38.866;2023-10-31T06:39:20;99170.0;;;4.8;100.0
28456;BME280;15682;56.742;38.866;2023-10-31T06:41:20;99170.0;;;4.8;100.0
28456;BME280;15682;56.742;38.866;2023-10-31T06:43:20;99170.0;;;4.8;100.0
28456;BME280;15682;56.742;38.866;2023-10-31T06:45:20;99170.0;;;5.0;100.0
28456;BME280;15682;56.742;38.866;2023-10-31T06:47:20;99170.0;;;5.0;100.0
28456;BME280;15682;56.742;38.866;2023-10-31T06:49:20;99180.0;;;4.9;100.0
28456;BME280;15682;56.742;38.866;2023-10-31T06:51:20;99180.0;;;4.9;100.0
28456;BME280;15682;56.742;38.866;2023-10-31T06:53:20;99180.0;;;4.9;100.0
28456;BME280;15682;56.742;38.866;2023-10-31T06:55:20;99200.0;;;4.9;100.0
28456;BME280;15682;56.742;38.866;2023-10-31T06:57:20;99200.0;;;4.9;100.0
28456;BME280;15682;56.742;38.866;2023-10-31T06:59:20;99200.0;;;4.9;100.0
28456;BME280;15682;56.742;38.866;2023-10-31T07:01:20;99200.0;;;4.9;100.0
28456;BME280;15682;56.742;38.866;2023-10-31T07:03:20;99200.0;;;4.9;100.0
28456;BME280;15682;56.742;38.866;2023-10-31T07:05:20;99200.0;;;4.9;100.0
28456;BME280;15682;56.742;38.866;2023-10-31T07:07:20;99200.0;;;4.9;100.0
28456;BME280;15682;56.742;38.866;2023-10-31T07:09:20;99220.0;;;5.0;100.0
28456;BME280;15682;56.742;38.866;2023-10-31T07:11:20;99220.0;;;5.0;100.0
28456;BME280;15682;56.742;38.866;2023-10-31T07:13:20;99230.0;;;4.9;100.0
28456;BME280;15682;56.742;38.866;2023-10-31T07:15:20;99230.0;;;4.9;100.0
28456;BME280;15682;56.742;38.866;2023-10-31T07:17:20;99250.0;;;4.9;100.0
28456;BME280;15682;56.742;38.866;2023-10-31T07:19:20;99250.0;;;4.9;100.0
28456;BME280;15682;56.742;38.866;2023-10-31T07:21:20;99250.0;;;4.9;100.0
28456;BME280;15682;56.742;38.866;2023-10-31T07:23:20;99250.0;;;5.0;100.0
28456;BME280;15682;56.742;38.866;2023-10-31T07:25:20;99250.0;;;5.0;100.0
28456;BME280;15682;56.742;38.866;2023-10-31T07:27:21;99250.0;;;5.1;100.0
28456;BME280;15682;56.742;38.866;2023-10-31T07:29:21;99250.0;;;5.1;100.0
28456;BME280;15682;56.742;38.866;2023-10-31T07:31:21;99250.0;;;5.1;100.0
28456;BME280;15682;56.742;38.866;2023-10-31T07:33:21;99250.0;;;5.0;100.0
28456;BME280;15682;56.742;38.866;2023-10-31T07:35:21;99250.0;;;5.0;100.0
28456;BME280;15682;56.742;38.866;2023-10-31T07:37:21;99260.0;;;5.2;100.0
28456;BME280;15682;56.742;38.866;2023-10-31T07:39:21;99260.0;;;5.2;100.0
28456;BME280;15682;56.742;38.866;2023-10-31T07:41:21;99260.0;;;5.2;100.0
28456;BME280;15682;56.742;38.866;2023-10-31T07:43:21;99260.0;;;5.2;100.0
28456;BME280;15682;56.742;38.866;2023-10-31T07:45:21;99260.0;;;5.2;100.0
28456;BME280;15682;56.742;38.866;2023-10-31T07:47:21;99270.0;;;5.2;100.0
28456;BME280;15682;56.742;38.866;2023-10-31T07:49:21;99280.0;;;5.2;100.0
28456;BME280;15682;56.742;38.866;2023-10-31T07:51:21;99280.0;;;5.3;100.0
28456;BME280;15682;56.742;38.866;2023-10-31T07:53:21;99280.0;;;5.3;100.0
28456;BME280;15682;56.742;38.866;2023-10-31T07:55:21;99280.0;;;5.3;100.0
28456;BME280;15682;56.742;38.866;2023-10-31T07:57:21;99300.0;;;5.3;100.0
28456;BME280;15682;56.742;38.866;2023-10-31T07:59:21;99300.0;;;5.3;100.0
28456;BME280;15682;56.742;38.866;2023-10-31T08:01:22;99300.0;;;5.3;100.0
28456;BME280;15682;56.742;38.866;2023-10-31T08:03:22;99300.0;;;5.5;100.0
28456;BME280;15682;56.742;38.866;2023-10-31T08:05:22;99300.0;;;5.5;100.0
28456;BME280;15682;56.742;38.866;2023-10-31T08:07:22;99310.0;;;5.5;100.0
28456;BME280;15682;56.742;38.866;2023-10-31T08:09:22;99310.0;;;5.5;100.0
28456;BME280;15682;56.742;38.866;2023-10-31T08:11:22;99310.0;;;5.5;100.0
28456;BME280;15682;56.742;38.866;2023-10-31T08:13:22;99310.0;;;5.4;100.0
28456;BME280;15682;56.742;38.866;2023-10-31T08:15:22;99310.0;;;5.4;100.0
28456;BME280;15682;56.742;38.866;2023-10-31T08:17:22;99310.0;;;5.4;100.0
28456;BME280;15682;56.742;38.866;2023-10-31T08:19:22;99320.0;;;5.4;100.0
28456;BME280;15682;56.742;38.866;2023-10-31T08:21:22;99320.0;;;5.4;100.0
28456;BME280;15682;56.742;38.866;2023-10-31T08:23:22;99320.0;;;5.5;100.0
28456;BME280;15682;56.742;38.866;2023-10-31T08:25:22;99320.0;;;5.5;100.0
28456;BME280;15682;56.742;38.866;2023-10-31T08:27:22;99320.0;;;5.5;100.0
28456;BME280;15682;56.742;38.866;2023-10-31T08:29:22;99320.0;;;5.5;100.0
28456;BME280;15682;56.742;38.866;2023-10-31T08:31:23;99320.0;;;5.5;100.0
28456;BME280;15682;56.742;38.866;2023-10-31T08:33:23;99320.0;;;5.5;100.0
28456;BME280;15682;56.742;38.866;2023-10-31T08:35:23;99320.0;;;5.6;100.0
28456;BME280;15682;56.742;38.866;2023-10-31T08:37:23;99320.0;;;5.6;100.0
28456;BME280;15682;56.742;38.866;2023-10-31T08:39:23;99330.0;;;5.6;100.0
28456;BME280;15682;56.742;38.866;2023-10-31T08:41:23;99330.0;;;5.6;100.0
28456;BME280;15682;56.742;38.866;2023-10-31T08:43:23;99330.0;;;5.5;100.0
28456;BME280;15682;56.742;38.866;2023-10-31T08:45:23;99330.0;;;5.5;100.0
28456;BME280;15682;56.742;38.866;2023-10-31T08:47:23;99330.0;;;5.5;100.0
28456;BME280;15682;56.742;38.866;2023-10-31T08:49:23;99350.0;;;5.5;100.0
28456;BME280;15682;56.742;38.866;2023-10-31T08:51:23;99350.0;;;5.5;100.0
28456;BME280;15682;56.742;38.866;2023-10-31T08:53:23;99350.0;;;5.5;100.0
28456;BME280;15682;56.742;38.866;2023-10-31T08:55:23;99350.0;;;5.5;100.0
28456;BME280;15682;56.742;38.866;2023-10-31T08:57:23;99350.0;;;5.7;100.0
28456;BME280;15682;56.742;38.866;2023-10-31T08:59:23;99350.0;;;5.6;100.0
28456;BME280;15682;56.742;38.866;2023-10-31T09:01:24;99350.0;;;5.6;100.0
28456;BME280;15682;56.742;38.866;2023-10-31T09:03:24;99350.0;;;5.7;100.0
28456;BME280;15682;56.742;38.866;2023-10-31T09:05:24;99350.0;;;5.7;100.0
28456;BME280;15682;56.742;38.866;2023-10-31T09:07:24;99340.0;;;5.7;100.0
28456;BME280;15682;56.742;38.866;2023-10-31T09:09:24;99330.0;;;5.9;100.0
28456;BME280;15682;56.742;38.866;2023-10-31T09:11:24;99330.0;;;5.8;100.0
28456;BME280;15682;56.742;38.866;2023-10-31T09:13:24;99330.0;;;5.8;100.0
28456;BME280;15682;56.742;38.866;2023-10-31T09:15:24;99330.0;;;5.7;100.0
28456;BME280;15682;56.742;38.866;2023-10-31T09:17:24;99330.0;;;5.9;100.0
28456;BME280;15682;56.742;38.866;2023-10-31T09:19:24;99330.0;;;5.9;100.0
28456;BME280;15682;56.742;38.866;2023-10-31T09:21:24;99330.0;;;5.9;100.0
28456;BME280;15682;56.742;38.866;2023-10-31T09:23:24;99330.0;;;5.9;100.0
28456;BME280;15682;56.742;38.866;2023-10-31T09:25:24;99330.0;;;5.9;100.0
28456;BME280;15682;56.742;38.866;2023-10-31T09:27:25;99330.0;;;5.9;100.0
28456;BME280;15682;56.742;38.866;2023-10-31T09:29:25;99330.0;;;5.7;100.0
28456;BME280;15682;56.742;38.866;2023-10-31T09:31:25;99330.0;;;5.9;100.0
28456;BME280;15682;56.742;38.866;2023-10-31T09:33:25;99350.0;;;5.9;100.0
28456;BME280;15682;56.742;38.866;2023-10-31T09:35:25;99350.0;;;5.9;100.0
28456;BME280;15682;56.742;38.866;2023-10-31T09:37:25;99350.0;;;5.9;100.0
28456;BME280;15682;56.742;38.866;2023-10-31T09:39:25;99350.0;;;6.0;100.0
28456;BME280;15682;56.742;38.866;2023-10-31T09:41:25;99350.0;;;5.9;100.0
28456;BME280;15682;56.742;38.866;2023-10-31T09:43:25;99350.0;;;5.9;100.0
28456;BME280;15682;56.742;38.866;2023-10-31T09:45:25;99350.0;;;5.9;100.0
28456;BME280;15682;56.742;38.866;2023-10-31T09:47:25;99350.0;;;5.9;100.0
28456;BME280;15682;56.742;38.866;2023-10-31T09:49:27;99350.0;;;5.8;100.0
28456;BME280;15682;56.742;38.866;2023-10-31T09:51:26;99350.0;;;5.8;100.0
28456;BME280;15682;56.742;38.866;2023-10-31T09:53:27;99350.0;;;5.9;100.0
28456;BME280;15682;56.742;38.866;2023-10-31T09:55:26;99350.0;;;6.0;100.0
28456;BME280;15682;56.742;38.866;2023-10-31T09:57:26;99350.0;;;6.0;100.0
28456;BME280;15682;56.742;38.866;2023-10-31T09:59:26;99360.0;;;6.0;100.0
28456;BME280;15682;56.742;38.866;2023-10-31T10:01:26;99360.0;;;5.9;100.0
28456;BME280;15682;56.742;38.866;2023-10-31T10:03:27;99360.0;;;6.0;100.0
28456;BME280;15682;56.742;38.866;2023-10-31T10:05:26;99360.0;;;6.1;100.0
28456;BME280;15682;56.742;38.866;2023-10-31T10:07:26;99360.0;;;5.9;100.0
28456;BME280;15682;56.742;38.866;2023-10-31T10:09:27;99360.0;;;6.1;100.0
28456;BME280;15682;56.742;38.866;2023-10-31T10:11:27;99360.0;;;6.1;100.0
28456;BME280;15682;56.742;38.866;2023-10-31T10:13:28;99360.0;;;6.2;100.0
28456;BME280;15682;56.742;38.866;2023-10-31T10:15:27;99360.0;;;6.3;100.0
28456;BME280;15682;56.742;38.866;2023-10-31T10:17:27;99360.0;;;6.3;100.0
28456;BME280;15682;56.742;38.866;2023-10-31T10:19:27;99360.0;;;6.3;100.0
28456;BME280;15682;56.742;38.866;2023-10-31T10:21:27;99360.0;;;6.2;100.0
28456;BME280;15682;56.742;38.866;2023-10-31T10:23:27;99360.0;;;6.2;100.0
28456;BME280;15682;56.742;38.866;2023-10-31T10:25:27;99360.0;;;6.2;100.0
28456;BME280;15682;56.742;38.866;2023-10-31T10:27:27;99360.0;;;6.2;100.0
28456;BME280;15682;56.742;38.866;2023-10-31T10:29:27;99360.0;;;6.2;100.0
28456;BME280;15682;56.742;38.866;2023-10-31T10:31:27;99360.0;;;6.2;100.0
28456;BME280;15682;56.742;38.866;2023-10-31T10:33:27;99360.0;;;6.2;100.0
28456;BME280;15682;56.742;38.866;2023-10-31T10:35:27;99360.0;;;6.3;100.0
28456;BME280;15682;56.742;38.866;2023-10-31T10:37:28;99360.0;;;6.3;100.0
28456;BME280;15682;56.742;38.866;2023-10-31T10:39:29;99360.0;;;6.3;100.0
28456;BME280;15682;56.742;38.866;2023-10-31T10:41:28;99360.0;;;6.3;100.0
28456;BME280;15682;56.742;38.866;2023-10-31T10:43:28;99360.0;;;6.2;100.0
28456;BME280;15682;56.742;38.866;2023-10-31T10:45:28;99360.0;;;6.2;100.0
28456;BME280;15682;56.742;38.866;2023-10-31T10:47:28;99360.0;;;6.2;100.0
28456;BME280;15682;56.742;38.866;2023-10-31T10:49:29;99360.0;;;6.2;100.0
28456;BME280;15682;56.742;38.866;2023-10-31T10:51:29;99360.0;;;6.2;100.0
28456;BME280;15682;56.742;38.866;2023-10-31T10:53:30;99360.0;;;6.3;100.0